createdAt,value
2019-05-16T00:00:40.144Z,2.07
2019-05-16T00:03:04.851Z,1.77
2019-05-16T00:05:33.079Z,1.95
2019-05-16T00:08:02.017Z,2.27
2019-05-16T00:10:29.538Z,2.23
2019-05-16T00:12:59.419Z,2.20
2019-05-16T00:15:24.442Z,2.20
2019-05-16T00:17:51.889Z,1.80
2019-05-16T00:20:19.331Z,1.87
2019-05-16T00:22:48.364Z,2.20
2019-05-16T00:25:14.257Z,2.20
2019-05-16T00:27:41.701Z,1.80
2019-05-16T00:30:09.288Z,1.97
2019-05-16T00:32:38.889Z,1.80
2019-05-16T00:35:04.152Z,2.20
2019-05-16T00:37:31.628Z,2.40
2019-05-16T00:39:59.065Z,2.30
2019-05-16T00:42:28.478Z,2.33
2019-05-16T00:44:54.000Z,2.20
2019-05-16T00:47:22.239Z,2.03
2019-05-16T00:49:49.678Z,2.35
2019-05-16T00:52:18.413Z,2.53
2019-05-16T00:54:44.597Z,2.40
2019-05-16T00:57:12.019Z,2.23
2019-05-16T00:59:39.458Z,2.20
2019-05-16T01:02:09.028Z,2.25
2019-05-16T01:04:34.369Z,2.53
2019-05-16T01:07:01.965Z,2.20
2019-05-16T01:09:30.261Z,2.40
2019-05-16T01:11:58.001Z,2.57
2019-05-16T01:14:25.232Z,2.17
2019-05-16T01:16:52.685Z,2.30
2019-05-16T01:19:20.107Z,2.50
2019-05-16T01:21:48.379Z,2.60
2019-05-16T01:24:15.047Z,3.20
2019-05-16T01:26:43.367Z,2.50
2019-05-16T01:29:11.818Z,2.80
2019-05-16T01:31:38.440Z,2.50
2019-05-16T01:34:07.814Z,2.50
2019-05-16T01:36:37.987Z,2.45
2019-05-16T01:39:02.229Z,2.87
2019-05-16T01:41:29.659Z,2.62
2019-05-16T01:43:58.515Z,2.60
2019-05-16T01:46:24.550Z,2.73
2019-05-16T01:48:51.977Z,2.70
2019-05-16T01:51:19.426Z,2.80
2019-05-16T01:53:48.749Z,2.67
2019-05-16T01:56:14.335Z,2.80
2019-05-16T01:58:41.809Z,5.63
2019-05-16T02:01:15.065Z,28.33
2019-05-16T02:03:39.332Z,7.37
2019-05-16T02:06:08.675Z,3.47
2019-05-16T02:08:34.245Z,3.47
2019-05-16T02:11:02.089Z,3.40
2019-05-16T02:13:30.429Z,3.33
2019-05-16T02:15:59.238Z,3.40
2019-05-16T02:18:25.462Z,3.00
2019-05-16T02:20:52.899Z,3.13
2019-05-16T02:23:20.337Z,2.85
2019-05-16T02:25:49.064Z,3.00
2019-05-16T02:28:15.272Z,2.80
2019-05-16T02:30:42.758Z,3.07
2019-05-16T02:33:11.613Z,2.57
2019-05-16T02:35:40.306Z,2.60
2019-05-16T02:38:05.982Z,2.50
2019-05-16T02:40:34.277Z,2.90
2019-05-16T02:43:02.106Z,2.80
2019-05-16T02:45:32.322Z,3.03
2019-05-16T02:47:56.787Z,3.40
2019-05-16T02:50:24.215Z,2.60
2019-05-16T02:52:52.553Z,3.20
2019-05-16T02:55:21.712Z,2.90
2019-05-16T02:57:47.536Z,3.10
2019-05-16T03:00:14.976Z,2.90
2019-05-16T03:02:42.463Z,2.90
2019-05-16T03:05:12.085Z,2.93
2019-05-16T03:07:41.962Z,3.10
2019-05-16T03:10:05.487Z,2.47
2019-05-16T03:12:32.949Z,3.20
2019-05-16T03:15:02.656Z,2.80
2019-05-16T03:17:31.751Z,2.60
2019-05-16T03:19:57.481Z,2.90
2019-05-16T03:22:24.917Z,2.80
2019-05-16T03:24:52.358Z,3.37
2019-05-16T03:27:21.576Z,2.83
2019-05-16T03:29:50.469Z,3.00
2019-05-16T03:32:14.801Z,3.00
2019-05-16T03:34:44.145Z,3.03
2019-05-16T03:37:14.227Z,3.73
2019-05-16T03:39:37.203Z,3.53
2019-05-16T03:42:04.638Z,3.07
2019-05-16T03:44:32.111Z,3.57
2019-05-16T03:47:00.984Z,3.30
2019-05-16T03:49:27.108Z,3.10
2019-05-16T03:51:54.556Z,2.90
2019-05-16T03:54:22.002Z,2.63
2019-05-16T03:56:51.396Z,2.65
2019-05-16T03:59:16.956Z,2.70
2019-05-16T04:01:44.380Z,2.60
2019-05-16T04:04:12.200Z,2.73
2019-05-16T04:06:41.577Z,2.80
2019-05-16T04:09:07.759Z,2.78
2019-05-16T04:11:35.182Z,2.70
2019-05-16T04:14:02.643Z,2.77
2019-05-16T04:16:31.332Z,2.93
2019-05-16T04:18:57.676Z,3.10
2019-05-16T04:21:25.129Z,2.80
2019-05-16T04:23:52.581Z,2.90
2019-05-16T04:26:23.122Z,2.25
2019-05-16T04:28:51.439Z,2.50
2019-05-16T04:31:21.719Z,2.43
2019-05-16T04:33:45.684Z,2.57
2019-05-16T04:36:13.142Z,2.40
2019-05-16T04:38:45.966Z,2.37
2019-05-16T04:41:11.310Z,2.30
2019-05-16T04:43:35.824Z,2.37
2019-05-16T04:46:03.270Z,2.40
2019-05-16T04:48:31.223Z,2.40
2019-05-16T04:51:01.035Z,2.30
2019-05-16T04:53:25.674Z,2.50
2019-05-16T04:55:53.098Z,2.53
2019-05-16T04:58:23.289Z,2.30
2019-05-16T05:00:51.266Z,2.70
2019-05-16T05:03:15.476Z,2.37
2019-05-16T05:05:42.928Z,2.50
2019-05-16T05:08:10.902Z,2.50
2019-05-16T05:10:40.463Z,2.40
2019-05-16T05:13:05.349Z,2.50
2019-05-16T05:15:32.790Z,2.60
2019-05-16T05:18:00.694Z,2.33
2019-05-16T05:20:30.384Z,2.27
2019-05-16T05:22:56.693Z,2.40
2019-05-16T05:25:24.144Z,2.30
2019-05-16T05:27:51.959Z,2.53
2019-05-16T05:30:19.916Z,2.60
2019-05-16T05:32:46.862Z,2.40
2019-05-16T05:35:14.282Z,2.30
2019-05-16T05:37:41.758Z,2.43
2019-05-16T05:40:10.574Z,2.33
2019-05-16T05:42:37.023Z,2.53
2019-05-16T05:45:04.463Z,2.47
2019-05-16T05:47:31.915Z,2.50
2019-05-16T05:50:00.674Z,2.40
2019-05-16T05:52:26.906Z,2.70
2019-05-16T05:54:54.365Z,2.73
2019-05-16T05:57:21.801Z,2.40
2019-05-16T05:59:49.811Z,2.70
2019-05-16T06:02:16.779Z,2.53
2019-05-16T06:04:44.257Z,2.47
2019-05-16T06:07:11.682Z,2.30
2019-05-16T06:09:52.440Z,2.33
2019-05-16T06:12:10.325Z,2.70
2019-05-16T06:14:35.077Z,2.45
2019-05-16T06:17:02.523Z,2.20
2019-05-16T06:19:29.973Z,2.57
2019-05-16T06:21:57.403Z,2.12
2019-05-16T06:24:24.851Z,2.57
2019-05-16T06:26:52.271Z,2.47
2019-05-16T06:29:20.356Z,2.40
2019-05-16T06:31:49.518Z,3.28
2019-05-16T06:34:15.395Z,2.97
2019-05-16T06:36:42.060Z,2.50
2019-05-16T06:39:11.390Z,2.62
2019-05-16T06:41:37.004Z,2.50
2019-05-16T06:44:04.442Z,2.60
2019-05-16T06:46:39.357Z,2.97
2019-05-16T06:48:59.642Z,2.80
2019-05-16T06:51:26.781Z,3.20
2019-05-16T06:53:54.211Z,2.67
2019-05-16T06:56:21.657Z,2.70
2019-05-16T06:58:51.733Z,2.42
2019-05-16T07:01:16.582Z,2.20
2019-05-16T07:03:44.021Z,2.10
2019-05-16T07:06:29.876Z,2.00
2019-05-16T07:08:40.300Z,1.90
2019-05-16T07:11:06.354Z,2.10
2019-05-16T07:13:33.801Z,1.80
2019-05-16T07:16:01.227Z,1.65
2019-05-16T07:18:30.739Z,2.08
2019-05-16T07:20:56.162Z,1.70
2019-05-16T07:23:23.597Z,1.70
2019-05-16T07:25:51.064Z,2.07
2019-05-16T07:28:20.825Z,1.90
2019-05-16T07:30:46.157Z,1.90
2019-05-16T07:33:13.610Z,1.67
2019-05-16T07:35:41.750Z,1.90
2019-05-16T07:38:10.712Z,2.10
2019-05-16T07:40:36.658Z,1.73
2019-05-16T07:43:04.102Z,1.50
2019-05-16T07:45:32.548Z,1.93
2019-05-16T07:48:00.159Z,1.53
2019-05-16T07:50:29.903Z,1.90
2019-05-16T07:52:54.966Z,1.80
2019-05-16T07:55:22.411Z,2.37
2019-05-16T07:57:50.638Z,1.80
2019-05-16T08:00:17.343Z,2.03
2019-05-16T08:02:44.771Z,2.10
2019-05-16T08:05:12.424Z,2.03
2019-05-16T08:07:40.694Z,2.20
2019-05-16T08:10:07.322Z,2.23
2019-05-16T08:12:34.778Z,1.67
2019-05-16T08:15:02.250Z,1.90
2019-05-16T08:17:31.447Z,2.10
2019-05-16T08:19:59.878Z,1.90
2019-05-16T08:22:25.225Z,2.10
2019-05-16T08:24:52.665Z,1.80
2019-05-16T08:27:20.759Z,1.50
2019-05-16T08:29:47.585Z,1.90
2019-05-16T08:32:16.212Z,1.90
2019-05-16T08:34:43.631Z,1.60
2019-05-16T08:37:32.855Z,2.00
2019-05-16T08:39:41.159Z,2.10
2019-05-16T08:42:08.484Z,1.10
2019-05-16T08:44:34.524Z,1.10
2019-05-16T08:47:06.024Z,1.80
2019-05-16T08:49:30.630Z,1.50
2019-05-16T08:51:57.014Z,1.70
2019-05-16T08:54:24.479Z,1.70
2019-05-16T08:56:51.984Z,1.60
2019-05-16T08:59:21.378Z,1.60
2019-05-16T09:01:53.393Z,0.90
2019-05-16T09:04:14.394Z,1.60
2019-05-16T09:06:42.645Z,1.80
2019-05-16T09:09:27.043Z,1.90
2019-05-16T09:11:44.616Z,1.97
2019-05-16T09:14:04.320Z,1.77
2019-05-16T09:16:31.778Z,1.70
2019-05-16T09:18:59.634Z,1.80
2019-05-16T09:21:27.627Z,1.60
2019-05-16T09:23:54.734Z,1.90
2019-05-16T09:26:22.213Z,1.87
2019-05-16T09:28:49.673Z,1.80
2019-05-16T09:31:23.942Z,1.77
2019-05-16T09:33:47.222Z,1.97
2019-05-16T09:36:12.062Z,1.77
2019-05-16T09:38:39.555Z,1.90
2019-05-16T09:41:07.854Z,1.90
2019-05-16T09:43:34.452Z,1.90
2019-05-16T09:46:04.077Z,1.90
2019-05-16T09:48:29.423Z,1.95
2019-05-16T09:50:57.634Z,2.10
2019-05-16T09:53:27.378Z,1.67
2019-05-16T09:55:52.827Z,2.53
2019-05-16T09:58:20.255Z,2.33
2019-05-16T10:00:47.789Z,2.20
2019-05-16T10:03:17.578Z,2.27
2019-05-16T10:05:42.669Z,2.00
2019-05-16T10:08:10.129Z,2.10
2019-05-16T10:10:37.547Z,2.40
2019-05-16T10:13:06.787Z,2.60
2019-05-16T10:15:32.487Z,1.65
2019-05-16T10:17:59.964Z,1.67
2019-05-16T10:20:27.549Z,2.07
2019-05-16T10:22:57.702Z,2.53
2019-05-16T10:25:22.318Z,2.70
2019-05-16T10:27:49.780Z,3.00
2019-05-16T10:30:17.696Z,2.63
2019-05-16T10:32:47.878Z,2.30
2019-05-16T10:35:13.099Z,2.50
2019-05-16T10:37:40.523Z,1.73
2019-05-16T10:40:07.995Z,2.50
2019-05-16T10:42:38.010Z,2.77
2019-05-16T10:45:02.946Z,2.60
2019-05-16T10:47:31.423Z,2.80
2019-05-16T10:49:57.837Z,2.57
2019-05-16T10:52:26.896Z,2.53
2019-05-16T10:54:58.447Z,2.90
2019-05-16T10:57:20.338Z,3.30
2019-05-16T11:00:06.548Z,3.27
2019-05-16T11:02:16.686Z,3.15
2019-05-16T11:04:57.394Z,2.97
2019-05-16T11:07:11.128Z,3.12
2019-05-16T11:09:39.593Z,2.90
2019-05-16T11:12:07.094Z,3.50
2019-05-16T11:14:36.899Z,3.10
2019-05-16T11:17:02.025Z,2.90
2019-05-16T11:19:29.469Z,2.27
2019-05-16T11:21:57.840Z,2.60
2019-05-16T11:24:29.000Z,2.20
2019-05-16T11:26:52.880Z,2.73
2019-05-16T11:29:20.284Z,2.80
2019-05-16T11:31:47.727Z,2.60
2019-05-16T11:34:17.185Z,3.13
2019-05-16T11:36:42.639Z,3.10
2019-05-16T11:39:10.111Z,3.07
2019-05-16T11:41:37.546Z,2.93
2019-05-16T11:44:06.656Z,2.70
2019-05-16T11:46:32.498Z,3.00
2019-05-16T11:48:59.957Z,3.10
2019-05-16T11:51:27.454Z,3.22
2019-05-16T11:53:59.728Z,3.70
2019-05-16T11:56:22.409Z,3.53
2019-05-16T11:58:49.864Z,2.37
2019-05-16T12:01:17.323Z,3.60
2019-05-16T12:03:46.812Z,3.27
2019-05-16T12:06:12.269Z,4.30
2019-05-16T12:08:40.677Z,4.07
2019-05-16T12:11:08.243Z,3.47
2019-05-16T12:13:36.844Z,3.47
2019-05-16T12:16:03.213Z,3.53
2019-05-16T12:18:30.635Z,3.58
2019-05-16T12:20:58.076Z,3.72
2019-05-16T12:23:27.537Z,3.20
2019-05-16T12:25:53.016Z,3.80
2019-05-16T12:28:20.473Z,3.73
2019-05-16T12:30:47.946Z,4.33
2019-05-16T12:33:18.365Z,3.43
2019-05-16T12:35:42.906Z,3.80
2019-05-16T12:38:10.347Z,3.80
2019-05-16T12:40:37.831Z,3.40
2019-05-16T12:43:07.725Z,3.80
2019-05-16T12:45:32.710Z,3.65
2019-05-16T12:48:00.147Z,3.63
2019-05-16T12:50:28.725Z,3.60
2019-05-16T12:55:16.649Z,3.50
2019-05-16T12:57:43.732Z,3.70
2019-05-16T13:00:15.111Z,3.85
2019-05-16T13:02:38.623Z,3.90
2019-05-16T13:05:06.065Z,3.03
2019-05-16T13:07:37.705Z,3.20
2019-05-16T13:10:07.217Z,3.20
2019-05-16T13:12:37.686Z,3.77
2019-05-16T13:15:07.204Z,3.00
2019-05-16T13:17:37.242Z,3.10
2019-05-16T13:20:02.148Z,3.15
2019-05-16T13:22:29.595Z,2.75
2019-05-16T13:24:57.585Z,3.30
2019-05-16T13:27:24.522Z,3.00
2019-05-16T13:29:51.981Z,3.62
2019-05-16T13:32:19.407Z,3.07
2019-05-16T13:34:46.852Z,3.60
2019-05-16T13:37:17.983Z,3.33
2019-05-16T13:39:42.966Z,3.10
2019-05-16T13:42:10.394Z,3.30
2019-05-16T13:44:37.895Z,3.27
2019-05-16T13:47:07.484Z,2.50
2019-05-16T13:49:32.815Z,2.72
2019-05-16T13:52:00.252Z,3.00
2019-05-16T13:54:27.686Z,2.78
2019-05-16T13:56:57.240Z,2.50
2019-05-16T13:59:23.660Z,2.70
2019-05-16T14:01:51.260Z,2.73
2019-05-16T14:04:19.603Z,2.50
2019-05-16T14:06:47.734Z,2.60
2019-05-16T14:09:14.559Z,2.70
2019-05-16T14:11:42.036Z,3.10
2019-05-16T14:14:09.493Z,3.00
2019-05-16T14:16:37.718Z,2.80
2019-05-16T14:19:04.415Z,3.30
2019-05-16T14:21:31.869Z,3.20
2019-05-16T14:23:59.316Z,3.90
2019-05-16T14:26:26.762Z,3.85
2019-05-16T14:28:57.327Z,4.63
2019-05-16T14:31:21.649Z,3.23
2019-05-16T14:33:49.113Z,4.03
2019-05-16T14:36:16.578Z,3.33
2019-05-16T14:38:46.619Z,3.63
2019-05-16T14:41:11.503Z,4.40
2019-05-16T14:43:38.977Z,5.03
2019-05-16T14:46:09.459Z,3.70
2019-05-16T14:48:36.774Z,4.23
2019-05-16T14:51:01.376Z,4.00
2019-05-16T14:53:28.845Z,4.10
2019-05-16T14:55:57.685Z,4.12
2019-05-16T14:58:23.797Z,3.67
2019-05-16T15:00:51.280Z,3.80
2019-05-16T15:03:18.750Z,3.77
2019-05-16T15:05:48.063Z,3.50
2019-05-16T15:08:13.664Z,3.57
2019-05-16T15:10:41.312Z,3.60
2019-05-16T15:13:08.756Z,4.10
2019-05-16T15:15:37.802Z,3.28
2019-05-16T15:18:03.649Z,3.37
2019-05-16T15:20:31.080Z,3.83
2019-05-16T15:22:58.548Z,2.33
2019-05-16T15:25:26.611Z,2.50
2019-05-16T15:27:53.476Z,3.47
2019-05-16T15:30:21.353Z,3.50
2019-05-16T15:32:48.812Z,3.10
2019-05-16T15:35:18.033Z,3.20
2019-05-16T15:37:43.765Z,3.47
2019-05-16T15:40:11.191Z,3.37
2019-05-16T15:42:38.685Z,4.10
2019-05-16T15:45:07.126Z,4.03
2019-05-16T15:47:37.174Z,3.80
2019-05-16T15:50:01.917Z,2.25
2019-05-16T15:52:29.352Z,2.93
2019-05-16T15:54:56.789Z,3.15
2019-05-16T15:57:26.790Z,3.60
2019-05-16T15:59:52.290Z,3.40
2019-05-16T16:02:19.744Z,2.97
2019-05-16T16:04:47.796Z,3.30
2019-05-16T16:07:14.619Z,3.20
2019-05-16T16:09:43.127Z,3.35
2019-05-16T16:12:11.021Z,3.27
2019-05-16T16:14:38.149Z,2.92
2019-05-16T16:17:06.652Z,3.60
2019-05-16T16:19:33.054Z,3.63
2019-05-16T16:22:00.505Z,3.90
2019-05-16T16:24:28.132Z,3.40
2019-05-16T16:26:56.547Z,3.50
2019-05-16T16:29:22.897Z,3.10
2019-05-16T16:31:50.307Z,3.50
2019-05-16T16:34:17.839Z,3.67
2019-05-16T16:36:47.390Z,3.80
2019-05-16T16:39:12.703Z,3.40
2019-05-16T16:41:40.141Z,3.67
2019-05-16T16:44:07.816Z,3.33
2019-05-16T16:46:37.450Z,3.45
2019-05-16T16:49:02.513Z,3.23
2019-05-16T16:51:29.980Z,3.43
2019-05-16T16:53:57.429Z,4.00
2019-05-16T16:56:27.274Z,3.07
2019-05-16T16:58:52.352Z,3.50
2019-05-16T17:01:19.796Z,3.40
2019-05-16T17:03:47.261Z,3.00
2019-05-16T17:06:17.486Z,3.07
2019-05-16T17:08:42.199Z,3.57
2019-05-16T17:11:09.667Z,3.83
2019-05-16T17:13:37.133Z,4.15
2019-05-16T17:16:18.037Z,3.67
2019-05-16T17:18:32.080Z,3.90
2019-05-16T17:20:59.515Z,4.70
2019-05-16T17:23:26.952Z,4.70
2019-05-16T17:25:56.432Z,4.00
2019-05-16T17:28:21.856Z,5.62
2019-05-16T17:30:49.293Z,5.60
2019-05-16T17:33:18.342Z,5.23
2019-05-16T17:35:48.296Z,3.97
2019-05-16T17:38:11.632Z,5.03
2019-05-16T17:40:39.101Z,5.47
2019-05-16T17:43:07.314Z,4.80
2019-05-16T17:45:34.022Z,4.95
2019-05-16T17:48:01.463Z,4.70
2019-05-16T17:50:28.902Z,4.90
2019-05-16T17:52:57.807Z,3.92
2019-05-16T17:55:26.877Z,4.72
2019-05-16T17:57:52.518Z,5.00
2019-05-16T18:00:25.348Z,4.80
2019-05-16T18:02:48.820Z,4.57
2019-05-16T18:05:17.052Z,4.77
2019-05-16T18:07:43.953Z,5.07
2019-05-16T18:10:11.658Z,5.55
2019-05-16T18:12:39.535Z,5.73
2019-05-16T18:15:08.817Z,6.70
2019-05-16T18:17:36.467Z,6.45
2019-05-16T18:20:06.881Z,6.50
2019-05-16T18:22:36.196Z,6.67
2019-05-16T18:25:01.830Z,6.57
2019-05-16T18:27:29.378Z,6.53
2019-05-16T18:29:56.815Z,6.50
2019-05-16T18:32:26.600Z,6.17
2019-05-16T18:34:52.696Z,6.40
2019-05-16T18:37:20.123Z,6.90
2019-05-16T18:39:47.581Z,9.07
2019-05-16T18:42:16.812Z,10.10
2019-05-16T18:44:42.614Z,9.60
2019-05-16T18:47:11.561Z,8.52
2019-05-16T18:49:37.538Z,9.10
2019-05-16T18:52:06.555Z,9.37
2019-05-16T18:54:32.442Z,9.15
2019-05-16T18:56:59.879Z,9.43
2019-05-16T18:59:27.296Z,8.43
2019-05-16T19:01:55.751Z,9.18
2019-05-16T19:04:23.723Z,7.93
2019-05-16T19:06:51.158Z,7.77
2019-05-16T19:09:18.594Z,8.57
2019-05-16T19:11:46.072Z,6.97
2019-05-16T19:14:13.679Z,7.57
2019-05-16T19:16:41.314Z,6.60
2019-05-16T19:19:08.773Z,6.47
2019-05-16T19:21:36.864Z,6.60
2019-05-16T19:24:03.741Z,6.53
2019-05-16T19:26:31.271Z,6.47
2019-05-16T19:28:58.748Z,6.83
2019-05-16T19:31:26.290Z,6.35
2019-05-16T19:33:56.373Z,6.50
2019-05-16T19:36:21.210Z,6.57
2019-05-16T19:38:48.649Z,6.90
2019-05-16T19:41:16.129Z,6.87
2019-05-16T19:43:43.588Z,6.05
2019-05-16T19:46:11.039Z,6.60
2019-05-16T19:48:38.506Z,6.53
2019-05-16T19:51:07.476Z,6.27
2019-05-16T19:53:33.693Z,6.20
2019-05-16T19:56:01.146Z,6.10
2019-05-16T19:58:31.041Z,6.23
2019-05-16T20:00:57.146Z,6.57
2019-05-16T20:03:23.829Z,6.37
2019-05-16T20:05:51.366Z,6.80
2019-05-16T20:08:19.643Z,7.20
2019-05-16T20:10:47.665Z,7.03
2019-05-16T20:13:16.510Z,6.83
2019-05-16T20:15:42.016Z,7.33
2019-05-16T20:18:09.502Z,7.03
2019-05-16T20:20:38.306Z,7.55
2019-05-16T20:23:05.752Z,7.87
2019-05-16T20:25:33.158Z,7.50
2019-05-16T20:28:00.642Z,7.93
2019-05-16T20:30:28.098Z,7.20
2019-05-16T20:32:55.537Z,8.27
2019-05-16T20:35:23.008Z,8.63
2019-05-16T20:37:50.501Z,8.07
2019-05-16T20:40:17.961Z,8.45
2019-05-16T20:42:47.483Z,8.55
2019-05-16T20:45:13.110Z,8.73
2019-05-16T20:47:40.553Z,8.30
2019-05-16T20:50:07.994Z,8.15
2019-05-16T20:52:37.681Z,8.60
2019-05-16T20:55:02.875Z,9.20
2019-05-16T20:57:30.291Z,9.18
2019-05-16T20:59:58.622Z,9.02
2019-05-16T21:02:27.020Z,9.03
2019-05-16T21:04:53.555Z,8.47
2019-05-16T21:07:21.030Z,9.90
2019-05-16T21:09:48.447Z,9.30
2019-05-16T21:12:17.247Z,9.80
2019-05-16T21:14:43.413Z,9.83
2019-05-16T21:17:11.081Z,9.13
2019-05-16T21:19:39.239Z,9.15
2019-05-16T21:22:07.293Z,9.47
2019-05-16T21:24:33.449Z,9.32
2019-05-16T21:27:00.879Z,9.20
2019-05-16T21:29:29.461Z,9.80
2019-05-16T21:31:56.901Z,9.30
2019-05-16T21:34:24.338Z,9.20
2019-05-16T21:36:51.971Z,9.87
2019-05-16T21:39:19.396Z,9.87
2019-05-16T21:41:47.864Z,10.45
2019-05-16T21:44:17.123Z,9.45
2019-05-16T21:46:42.763Z,9.93
2019-05-16T21:49:10.211Z,9.90
2019-05-16T21:51:37.838Z,9.80
2019-05-16T21:54:07.150Z,9.60
2019-05-16T21:56:33.894Z,10.43
2019-05-16T21:59:01.379Z,10.10
2019-05-16T22:01:29.939Z,10.27
2019-05-16T22:03:57.381Z,10.53
2019-05-16T22:06:25.367Z,10.68
2019-05-16T22:08:53.021Z,9.90
2019-05-16T22:11:20.463Z,10.37
2019-05-16T22:13:47.906Z,10.25
2019-05-16T22:16:17.645Z,10.20
2019-05-16T22:18:42.830Z,10.97
2019-05-16T22:21:10.274Z,10.77
2019-05-16T22:23:37.734Z,10.80
2019-05-16T22:26:07.597Z,11.07
2019-05-16T22:28:32.619Z,10.53
2019-05-16T22:31:00.470Z,10.77
2019-05-16T22:33:27.927Z,10.20
2019-05-16T22:35:57.695Z,9.93
2019-05-16T22:38:22.810Z,9.70
2019-05-16T22:40:52.836Z,9.97
2019-05-16T22:43:20.335Z,9.73
2019-05-16T22:45:47.784Z,10.38
2019-05-16T22:48:17.241Z,10.77
2019-05-16T22:50:42.726Z,10.73
2019-05-16T22:53:11.179Z,10.23
2019-05-16T22:55:38.647Z,11.10
2019-05-16T22:58:07.243Z,10.90
2019-05-16T23:00:33.572Z,11.00
2019-05-16T23:03:01.063Z,10.07
2019-05-16T23:05:28.496Z,10.23
2019-05-16T23:08:05.016Z,10.43
2019-05-16T23:10:25.034Z,11.03
2019-05-16T23:12:51.596Z,11.07
2019-05-16T23:15:19.123Z,9.87
2019-05-16T23:17:46.701Z,10.52
2019-05-16T23:20:14.020Z,10.83
2019-05-16T23:22:41.452Z,10.43
2019-05-16T23:25:08.917Z,11.17
2019-05-16T23:27:36.981Z,10.87
2019-05-16T23:30:04.614Z,10.80
2019-05-16T23:32:32.441Z,10.77
2019-05-16T23:34:59.877Z,11.20
2019-05-16T23:37:27.504Z,10.60
2019-05-16T23:39:56.789Z,10.70
2019-05-16T23:42:22.266Z,11.13
2019-05-16T23:44:49.745Z,11.50
2019-05-16T23:47:17.163Z,11.45
2019-05-16T23:49:47.143Z,11.70
2019-05-16T23:52:12.075Z,11.13
2019-05-16T23:54:39.546Z,11.52
2019-05-16T23:57:06.967Z,11.40
2019-05-16T23:59:36.702Z,10.30
